sensor_id;sensor_type;location;lat;lon;timestamp;temperature;humidity
11666;DHT22;5889;51.350;6.708;2023-12-28T00:01:07;9.90;99.90
11666;DHT22;5889;51.350;6.708;2023-12-28T00:03:33;9.90;99.90
11666;DHT22;5889;51.350;6.708;2023-12-28T00:06:01;9.90;99.90
11666;DHT22;5889;51.350;6.708;2023-12-28T00:08:28;9.80;99.90
11666;DHT22;5889;51.350;6.708;2023-12-28T00:10:57;9.80;99.90
11666;DHT22;5889;51.350;6.708;2023-12-28T00:13:24;9.90;99.90
11666;DHT22;5889;51.350;6.708;2023-12-28T00:15:51;9.90;99.90
11666;DHT22;5889;51.350;6.708;2023-12-28T00:18:18;9.90;99.90
11666;DHT22;5889;51.350;6.708;2023-12-28T00:20:44;9.90;99.90
11666;DHT22;5889;51.350;6.708;2023-12-28T00:23:12;9.90;99.90
11666;DHT22;5889;51.350;6.708;2023-12-28T00:25:39;9.90;99.90
11666;DHT22;5889;51.350;6.708;2023-12-28T00:28:06;9.90;99.90
11666;DHT22;5889;51.350;6.708;2023-12-28T00:30:32;10.00;99.90
11666;DHT22;5889;51.350;6.708;2023-12-28T00:32:59;10.00;99.90
11666;DHT22;5889;51.350;6.708;2023-12-28T00:35:26;10.00;99.90
11666;DHT22;5889;51.350;6.708;2023-12-28T00:37:52;10.00;99.90
11666;DHT22;5889;51.350;6.708;2023-12-28T00:40:20;10.00;99.90
11666;DHT22;5889;51.350;6.708;2023-12-28T00:42:48;10.00;99.90
11666;DHT22;5889;51.350;6.708;2023-12-28T00:45:15;10.00;99.90
11666;DHT22;5889;51.350;6.708;2023-12-28T00:47:41;10.00;99.90
11666;DHT22;5889;51.350;6.708;2023-12-28T00:50:09;10.00;99.90
11666;DHT22;5889;51.350;6.708;2023-12-28T00:52:37;10.00;99.90
11666;DHT22;5889;51.350;6.708;2023-12-28T00:55:04;10.00;99.90
11666;DHT22;5889;51.350;6.708;2023-12-28T00:57:32;10.00;99.90
11666;DHT22;5889;51.350;6.708;2023-12-28T00:59:59;10.10;99.90
11666;DHT22;5889;51.350;6.708;2023-12-28T01:02:26;10.00;99.90
11666;DHT22;5889;51.350;6.708;2023-12-28T01:04:53;10.00;99.90
11666;DHT22;5889;51.350;6.708;2023-12-28T01:07:20;10.00;99.90
11666;DHT22;5889;51.350;6.708;2023-12-28T01:09:46;10.00;99.90
11666;DHT22;5889;51.350;6.708;2023-12-28T01:12:13;10.00;99.90
11666;DHT22;5889;51.350;6.708;2023-12-28T01:14:41;10.00;99.90
11666;DHT22;5889;51.350;6.708;2023-12-28T01:17:08;10.00;99.90
11666;DHT22;5889;51.350;6.708;2023-12-28T01:19:35;10.00;99.90
11666;DHT22;5889;51.350;6.708;2023-12-28T01:22:01;10.00;99.90
11666;DHT22;5889;51.350;6.708;2023-12-28T01:24:28;10.00;99.90
11666;DHT22;5889;51.350;6.708;2023-12-28T01:26:55;10.00;99.90
11666;DHT22;5889;51.350;6.708;2023-12-28T01:29:21;9.90;99.90
11666;DHT22;5889;51.350;6.708;2023-12-28T01:31:49;9.90;99.90
11666;DHT22;5889;51.350;6.708;2023-12-28T01:34:16;9.90;99.90
11666;DHT22;5889;51.350;6.708;2023-12-28T01:36:43;9.90;99.90
11666;DHT22;5889;51.350;6.708;2023-12-28T01:39:09;9.90;99.90
11666;DHT22;5889;51.350;6.708;2023-12-28T01:41:37;9.90;99.90
11666;DHT22;5889;51.350;6.708;2023-12-28T01:44:04;9.90;99.90
11666;DHT22;5889;51.350;6.708;2023-12-28T01:46:30;9.90;99.90
11666;DHT22;5889;51.350;6.708;2023-12-28T01:49:00;9.90;99.90
11666;DHT22;5889;51.350;6.708;2023-12-28T01:51:27;9.90;99.90
11666;DHT22;5889;51.350;6.708;2023-12-28T01:53:54;9.90;99.90
11666;DHT22;5889;51.350;6.708;2023-12-28T01:56:21;9.90;99.90
11666;DHT22;5889;51.350;6.708;2023-12-28T01:58:49;9.90;99.90
11666;DHT22;5889;51.350;6.708;2023-12-28T02:01:17;9.90;99.90
11666;DHT22;5889;51.350;6.708;2023-12-28T02:03:44;9.90;99.90
11666;DHT22;5889;51.350;6.708;2023-12-28T02:06:14;9.90;99.90
11666;DHT22;5889;51.350;6.708;2023-12-28T02:08:41;10.00;99.90
11666;DHT22;5889;51.350;6.708;2023-12-28T02:11:08;9.90;99.90
11666;DHT22;5889;51.350;6.708;2023-12-28T02:13:36;10.00;99.90
11666;DHT22;5889;51.350;6.708;2023-12-28T02:16:06;10.00;99.90
11666;DHT22;5889;51.350;6.708;2023-12-28T02:18:39;10.00;99.90
11666;DHT22;5889;51.350;6.708;2023-12-28T02:21:08;10.00;99.90
11666;DHT22;5889;51.350;6.708;2023-12-28T02:23:36;10.00;99.90
11666;DHT22;5889;51.350;6.708;2023-12-28T02:26:04;10.10;99.90
11666;DHT22;5889;51.350;6.708;2023-12-28T02:28:31;10.00;99.90
11666;DHT22;5889;51.350;6.708;2023-12-28T02:31:00;10.10;99.90
11666;DHT22;5889;51.350;6.708;2023-12-28T02:33:33;10.10;99.90
11666;DHT22;5889;51.350;6.708;2023-12-28T02:36:05;10.10;99.90
11666;DHT22;5889;51.350;6.708;2023-12-28T02:38:36;10.10;99.90
11666;DHT22;5889;51.350;6.708;2023-12-28T02:41:06;10.10;99.90
11666;DHT22;5889;51.350;6.708;2023-12-28T02:43:34;10.10;99.90
11666;DHT22;5889;51.350;6.708;2023-12-28T02:46:00;10.00;99.90
11666;DHT22;5889;51.350;6.708;2023-12-28T02:48:27;10.00;99.90
11666;DHT22;5889;51.350;6.708;2023-12-28T02:50:54;10.00;99.90
11666;DHT22;5889;51.350;6.708;2023-12-28T02:53:20;10.00;99.90
11666;DHT22;5889;51.350;6.708;2023-12-28T02:55:47;10.00;99.90
11666;DHT22;5889;51.350;6.708;2023-12-28T02:58:15;10.00;99.90
11666;DHT22;5889;51.350;6.708;2023-12-28T03:00:42;10.10;99.90
11666;DHT22;5889;51.350;6.708;2023-12-28T03:03:09;10.10;99.90
11666;DHT22;5889;51.350;6.708;2023-12-28T03:05:35;10.10;99.90
11666;DHT22;5889;51.350;6.708;2023-12-28T03:08:02;10.10;99.90
11666;DHT22;5889;51.350;6.708;2023-12-28T03:10:29;10.10;99.90
11666;DHT22;5889;51.350;6.708;2023-12-28T03:12:56;10.20;99.90
11666;DHT22;5889;51.350;6.708;2023-12-28T03:15:24;10.20;99.90
11666;DHT22;5889;51.350;6.708;2023-12-28T03:17:51;10.20;99.90
11666;DHT22;5889;51.350;6.708;2023-12-28T03:20:19;10.20;99.90
11666;DHT22;5889;51.350;6.708;2023-12-28T03:22:46;10.20;99.90
11666;DHT22;5889;51.350;6.708;2023-12-28T03:25:14;10.20;99.90
11666;DHT22;5889;51.350;6.708;2023-12-28T03:27:41;10.20;99.90
11666;DHT22;5889;51.350;6.708;2023-12-28T03:30:08;10.20;99.90
11666;DHT22;5889;51.350;6.708;2023-12-28T03:32:37;10.20;99.90
11666;DHT22;5889;51.350;6.708;2023-12-28T03:35:04;10.20;99.90
11666;DHT22;5889;51.350;6.708;2023-12-28T03:37:32;10.20;99.90
11666;DHT22;5889;51.350;6.708;2023-12-28T03:39:59;10.20;99.90
11666;DHT22;5889;51.350;6.708;2023-12-28T03:42:25;10.20;99.90
11666;DHT22;5889;51.350;6.708;2023-12-28T03:44:52;10.20;99.90
11666;DHT22;5889;51.350;6.708;2023-12-28T03:47:19;10.20;99.90
11666;DHT22;5889;51.350;6.708;2023-12-28T03:49:47;10.20;99.90
11666;DHT22;5889;51.350;6.708;2023-12-28T03:52:13;10.20;99.90
11666;DHT22;5889;51.350;6.708;2023-12-28T03:54:40;10.20;99.90
11666;DHT22;5889;51.350;6.708;2023-12-28T03:57:07;10.10;99.90
11666;DHT22;5889;51.350;6.708;2023-12-28T03:59:34;10.10;99.90
11666;DHT22;5889;51.350;6.708;2023-12-28T04:02:00;10.10;99.90
11666;DHT22;5889;51.350;6.708;2023-12-28T04:04:27;10.20;99.90
11666;DHT22;5889;51.350;6.708;2023-12-28T04:06:56;10.10;99.90
11666;DHT22;5889;51.350;6.708;2023-12-28T04:09:23;10.10;99.90
11666;DHT22;5889;51.350;6.708;2023-12-28T04:11:50;10.10;99.90
11666;DHT22;5889;51.350;6.708;2023-12-28T04:14:17;10.10;99.90
11666;DHT22;5889;51.350;6.708;2023-12-28T04:16:44;10.10;99.90
11666;DHT22;5889;51.350;6.708;2023-12-28T04:19:11;10.10;99.90
11666;DHT22;5889;51.350;6.708;2023-12-28T04:21:38;10.10;99.90
11666;DHT22;5889;51.350;6.708;2023-12-28T04:24:06;10.10;99.90
11666;DHT22;5889;51.350;6.708;2023-12-28T04:26:33;10.10;99.90
11666;DHT22;5889;51.350;6.708;2023-12-28T04:29:00;10.10;99.90
11666;DHT22;5889;51.350;6.708;2023-12-28T04:31:27;10.10;99.90
11666;DHT22;5889;51.350;6.708;2023-12-28T04:33:53;10.10;99.90
11666;DHT22;5889;51.350;6.708;2023-12-28T04:36:20;10.10;99.90
11666;DHT22;5889;51.350;6.708;2023-12-28T04:38:47;10.10;99.90
11666;DHT22;5889;51.350;6.708;2023-12-28T04:41:15;10.10;99.90
11666;DHT22;5889;51.350;6.708;2023-12-28T04:43:42;10.10;99.90
11666;DHT22;5889;51.350;6.708;2023-12-28T04:46:09;10.20;99.90
11666;DHT22;5889;51.350;6.708;2023-12-28T04:48:35;10.20;99.90
11666;DHT22;5889;51.350;6.708;2023-12-28T04:51:03;10.20;99.90
11666;DHT22;5889;51.350;6.708;2023-12-28T04:53:29;10.20;99.90
11666;DHT22;5889;51.350;6.708;2023-12-28T04:55:57;10.20;99.90
11666;DHT22;5889;51.350;6.708;2023-12-28T04:58:25;10.20;99.90
11666;DHT22;5889;51.350;6.708;2023-12-28T05:00:51;10.20;99.90
11666;DHT22;5889;51.350;6.708;2023-12-28T05:03:18;10.20;99.90
11666;DHT22;5889;51.350;6.708;2023-12-28T05:05:45;10.20;99.90
11666;DHT22;5889;51.350;6.708;2023-12-28T05:08:12;10.20;99.90
11666;DHT22;5889;51.350;6.708;2023-12-28T05:10:38;10.20;99.90
11666;DHT22;5889;51.350;6.708;2023-12-28T05:13:05;10.20;99.90
11666;DHT22;5889;51.350;6.708;2023-12-28T05:15:33;10.10;99.90
11666;DHT22;5889;51.350;6.708;2023-12-28T05:18:00;10.20;99.90
11666;DHT22;5889;51.350;6.708;2023-12-28T05:20:26;10.20;99.90
11666;DHT22;5889;51.350;6.708;2023-12-28T05:22:53;10.20;99.90
11666;DHT22;5889;51.350;6.708;2023-12-28T05:25:20;10.20;99.90
11666;DHT22;5889;51.350;6.708;2023-12-28T05:27:47;10.20;99.90
11666;DHT22;5889;51.350;6.708;2023-12-28T05:30:14;10.20;99.90
11666;DHT22;5889;51.350;6.708;2023-12-28T05:32:42;10.20;99.90
11666;DHT22;5889;51.350;6.708;2023-12-28T05:35:08;10.30;99.90
11666;DHT22;5889;51.350;6.708;2023-12-28T05:37:35;10.30;99.90
11666;DHT22;5889;51.350;6.708;2023-12-28T05:40:02;10.30;99.90
11666;DHT22;5889;51.350;6.708;2023-12-28T05:42:29;10.30;99.90
11666;DHT22;5889;51.350;6.708;2023-12-28T05:44:55;10.30;99.90
11666;DHT22;5889;51.350;6.708;2023-12-28T05:47:22;10.30;99.90
11666;DHT22;5889;51.350;6.708;2023-12-28T05:49:50;10.40;99.90
11666;DHT22;5889;51.350;6.708;2023-12-28T05:52:18;10.30;99.90
11666;DHT22;5889;51.350;6.708;2023-12-28T05:54:45;10.30;99.90
11666;DHT22;5889;51.350;6.708;2023-12-28T05:57:11;10.30;99.90
11666;DHT22;5889;51.350;6.708;2023-12-28T05:59:38;10.40;99.90
11666;DHT22;5889;51.350;6.708;2023-12-28T06:02:05;10.40;99.90
11666;DHT22;5889;51.350;6.708;2023-12-28T06:04:32;10.40;99.90
11666;DHT22;5889;51.350;6.708;2023-12-28T06:07:02;10.40;99.90
11666;DHT22;5889;51.350;6.708;2023-12-28T06:09:29;10.40;99.90
11666;DHT22;5889;51.350;6.708;2023-12-28T06:11:55;10.40;99.90
11666;DHT22;5889;51.350;6.708;2023-12-28T06:14:22;10.40;99.90
11666;DHT22;5889;51.350;6.708;2023-12-28T06:16:49;10.30;99.90
11666;DHT22;5889;51.350;6.708;2023-12-28T06:19:16;10.40;99.90
11666;DHT22;5889;51.350;6.708;2023-12-28T06:21:42;10.30;99.90
11666;DHT22;5889;51.350;6.708;2023-12-28T06:24:10;10.30;99.90
11666;DHT22;5889;51.350;6.708;2023-12-28T06:26:39;10.30;99.90
11666;DHT22;5889;51.350;6.708;2023-12-28T06:29:06;10.30;99.90
11666;DHT22;5889;51.350;6.708;2023-12-28T06:31:33;10.30;99.90
11666;DHT22;5889;51.350;6.708;2023-12-28T06:34:01;10.30;99.90
11666;DHT22;5889;51.350;6.708;2023-12-28T06:36:28;10.30;99.90
11666;DHT22;5889;51.350;6.708;2023-12-28T06:38:55;10.30;99.90
11666;DHT22;5889;51.350;6.708;2023-12-28T06:41:23;10.30;99.90
11666;DHT22;5889;51.350;6.708;2023-12-28T06:43:50;10.30;99.90
11666;DHT22;5889;51.350;6.708;2023-12-28T06:46:17;10.30;99.90
11666;DHT22;5889;51.350;6.708;2023-12-28T06:48:44;10.30;99.90
11666;DHT22;5889;51.350;6.708;2023-12-28T06:51:17;10.30;99.90
11666;DHT22;5889;51.350;6.708;2023-12-28T06:53:44;10.30;99.90
11666;DHT22;5889;51.350;6.708;2023-12-28T06:56:11;10.30;99.90
11666;DHT22;5889;51.350;6.708;2023-12-28T06:58:39;10.30;99.90
11666;DHT22;5889;51.350;6.708;2023-12-28T07:01:06;10.30;99.90
11666;DHT22;5889;51.350;6.708;2023-12-28T07:03:33;10.30;99.90
11666;DHT22;5889;51.350;6.708;2023-12-28T07:06:00;10.40;99.90
11666;DHT22;5889;51.350;6.708;2023-12-28T07:08:27;10.40;99.90
11666;DHT22;5889;51.350;6.708;2023-12-28T07:10:54;10.40;99.90
11666;DHT22;5889;51.350;6.708;2023-12-28T07:13:21;10.40;99.90
11666;DHT22;5889;51.350;6.708;2023-12-28T07:15:49;10.40;99.90
11666;DHT22;5889;51.350;6.708;2023-12-28T07:18:16;10.40;99.90
11666;DHT22;5889;51.350;6.708;2023-12-28T07:20:42;10.40;99.90
11666;DHT22;5889;51.350;6.708;2023-12-28T07:23:09;10.40;99.90
11666;DHT22;5889;51.350;6.708;2023-12-28T07:25:36;10.40;99.90
11666;DHT22;5889;51.350;6.708;2023-12-28T07:28:03;10.40;99.90
11666;DHT22;5889;51.350;6.708;2023-12-28T07:30:30;10.40;99.90
11666;DHT22;5889;51.350;6.708;2023-12-28T07:32:58;10.50;99.90
11666;DHT22;5889;51.350;6.708;2023-12-28T07:35:25;10.50;99.90
11666;DHT22;5889;51.350;6.708;2023-12-28T07:37:51;10.50;99.90
11666;DHT22;5889;51.350;6.708;2023-12-28T07:40:20;10.50;99.90
11666;DHT22;5889;51.350;6.708;2023-12-28T07:42:46;10.50;99.90
11666;DHT22;5889;51.350;6.708;2023-12-28T07:45:13;10.50;99.90
11666;DHT22;5889;51.350;6.708;2023-12-28T07:47:40;10.50;99.90
11666;DHT22;5889;51.350;6.708;2023-12-28T07:50:08;10.50;99.90
11666;DHT22;5889;51.350;6.708;2023-12-28T07:52:36;10.50;99.90
11666;DHT22;5889;51.350;6.708;2023-12-28T07:55:04;10.50;99.90
11666;DHT22;5889;51.350;6.708;2023-12-28T07:57:30;10.50;99.90
11666;DHT22;5889;51.350;6.708;2023-12-28T07:59:57;10.50;99.90
11666;DHT22;5889;51.350;6.708;2023-12-28T08:02:24;10.50;99.90
11666;DHT22;5889;51.350;6.708;2023-12-28T08:04:51;10.50;99.90
11666;DHT22;5889;51.350;6.708;2023-12-28T08:07:19;10.50;99.90
11666;DHT22;5889;51.350;6.708;2023-12-28T08:09:45;10.50;99.90
11666;DHT22;5889;51.350;6.708;2023-12-28T08:12:12;10.60;99.90
11666;DHT22;5889;51.350;6.708;2023-12-28T08:14:39;10.60;99.90
11666;DHT22;5889;51.350;6.708;2023-12-28T08:17:05;10.50;99.90
11666;DHT22;5889;51.350;6.708;2023-12-28T08:19:33;10.50;99.90
11666;DHT22;5889;51.350;6.708;2023-12-28T08:21:59;10.50;99.90
11666;DHT22;5889;51.350;6.708;2023-12-28T08:24:27;10.60;99.90
11666;DHT22;5889;51.350;6.708;2023-12-28T08:26:54;10.60;99.90
11666;DHT22;5889;51.350;6.708;2023-12-28T08:29:24;10.60;99.90
11666;DHT22;5889;51.350;6.708;2023-12-28T08:31:51;10.60;99.90
11666;DHT22;5889;51.350;6.708;2023-12-28T08:34:18;10.60;99.90
11666;DHT22;5889;51.350;6.708;2023-12-28T08:36:45;10.60;99.90
11666;DHT22;5889;51.350;6.708;2023-12-28T08:39:11;10.60;99.90
11666;DHT22;5889;51.350;6.708;2023-12-28T08:41:39;10.60;99.90
11666;DHT22;5889;51.350;6.708;2023-12-28T08:44:06;10.60;99.90
11666;DHT22;5889;51.350;6.708;2023-12-28T08:46:33;10.70;99.90
11666;DHT22;5889;51.350;6.708;2023-12-28T08:48:59;10.70;99.90
11666;DHT22;5889;51.350;6.708;2023-12-28T08:51:26;10.70;99.90
11666;DHT22;5889;51.350;6.708;2023-12-28T08:53:53;10.70;99.90
11666;DHT22;5889;51.350;6.708;2023-12-28T08:56:20;10.70;99.90
11666;DHT22;5889;51.350;6.708;2023-12-28T08:58:49;10.70;99.90
11666;DHT22;5889;51.350;6.708;2023-12-28T09:01:18;10.80;99.90
11666;DHT22;5889;51.350;6.708;2023-12-28T09:03:47;10.80;99.90
11666;DHT22;5889;51.350;6.708;2023-12-28T09:06:14;10.70;99.90
11666;DHT22;5889;51.350;6.708;2023-12-28T09:08:42;10.80;99.90
11666;DHT22;5889;51.350;6.708;2023-12-28T09:11:11;10.80;99.90
11666;DHT22;5889;51.350;6.708;2023-12-28T09:13:43;10.80;99.90
11666;DHT22;5889;51.350;6.708;2023-12-28T09:16:20;10.90;99.90
11666;DHT22;5889;51.350;6.708;2023-12-28T09:18:50;10.90;99.90
11666;DHT22;5889;51.350;6.708;2023-12-28T09:21:17;10.90;99.90
11666;DHT22;5889;51.350;6.708;2023-12-28T09:23:44;10.90;99.90
11666;DHT22;5889;51.350;6.708;2023-12-28T09:26:10;11.00;99.90
11666;DHT22;5889;51.350;6.708;2023-12-28T09:28:37;11.00;99.90
11666;DHT22;5889;51.350;6.708;2023-12-28T09:31:06;11.00;99.90
11666;DHT22;5889;51.350;6.708;2023-12-28T09:33:34;11.10;99.90
11666;DHT22;5889;51.350;6.708;2023-12-28T09:36:03;11.10;99.90
11666;DHT22;5889;51.350;6.708;2023-12-28T09:38:30;11.10;99.90
11666;DHT22;5889;51.350;6.708;2023-12-28T09:40:58;11.10;99.90
11666;DHT22;5889;51.350;6.708;2023-12-28T09:43:32;11.10;99.90
11666;DHT22;5889;51.350;6.708;2023-12-28T09:46:06;11.10;99.90
11666;DHT22;5889;51.350;6.708;2023-12-28T09:48:37;11.10;99.90
11666;DHT22;5889;51.350;6.708;2023-12-28T09:51:04;11.20;99.90
11666;DHT22;5889;51.350;6.708;2023-12-28T09:53:32;11.20;99.90
11666;DHT22;5889;51.350;6.708;2023-12-28T09:55:59;11.20;99.90
11666;DHT22;5889;51.350;6.708;2023-12-28T09:58:27;11.20;99.90
11666;DHT22;5889;51.350;6.708;2023-12-28T10:00:56;11.20;99.90
11666;DHT22;5889;51.350;6.708;2023-12-28T10:03:23;11.30;99.90
11666;DHT22;5889;51.350;6.708;2023-12-28T10:05:52;11.30;99.90
11666;DHT22;5889;51.350;6.708;2023-12-28T10:08:19;11.30;99.90
11666;DHT22;5889;51.350;6.708;2023-12-28T10:10:46;11.30;99.90
11666;DHT22;5889;51.350;6.708;2023-12-28T10:13:16;11.40;99.90
11666;DHT22;5889;51.350;6.708;2023-12-28T10:15:44;11.40;99.90
11666;DHT22;5889;51.350;6.708;2023-12-28T10:18:10;11.40;99.90
11666;DHT22;5889;51.350;6.708;2023-12-28T10:20:37;11.40;99.90
11666;DHT22;5889;51.350;6.708;2023-12-28T10:23:06;11.40;99.90
11666;DHT22;5889;51.350;6.708;2023-12-28T10:25:33;11.50;99.90
11666;DHT22;5889;51.350;6.708;2023-12-28T10:28:04;11.50;99.90
11666;DHT22;5889;51.350;6.708;2023-12-28T10:30:32;11.50;99.90
11666;DHT22;5889;51.350;6.708;2023-12-28T10:32:59;11.50;99.90
11666;DHT22;5889;51.350;6.708;2023-12-28T10:35:26;11.50;99.90
11666;DHT22;5889;51.350;6.708;2023-12-28T10:37:53;11.50;99.90
11666;DHT22;5889;51.350;6.708;2023-12-28T10:40:21;11.50;99.90
11666;DHT22;5889;51.350;6.708;2023-12-28T10:42:53;11.50;99.90
11666;DHT22;5889;51.350;6.708;2023-12-28T10:45:25;11.50;99.90
11666;DHT22;5889;51.350;6.708;2023-12-28T10:47:56;11.50;99.90
11666;DHT22;5889;51.350;6.708;2023-12-28T10:50:28;11.50;99.90
11666;DHT22;5889;51.350;6.708;2023-12-28T10:53:00;11.50;99.90
11666;DHT22;5889;51.350;6.708;2023-12-28T10:55:37;11.50;99.90
11666;DHT22;5889;51.350;6.708;2023-12-28T10:58:10;11.50;99.90
11666;DHT22;5889;51.350;6.708;2023-12-28T11:00:43;11.60;99.90
11666;DHT22;5889;51.350;6.708;2023-12-28T11:03:12;11.60;99.90
11666;DHT22;5889;51.350;6.708;2023-12-28T11:05:45;11.60;99.90
11666;DHT22;5889;51.350;6.708;2023-12-28T11:08:15;11.60;99.90
11666;DHT22;5889;51.350;6.708;2023-12-28T11:10:44;11.60;99.90
11666;DHT22;5889;51.350;6.708;2023-12-28T11:13:12;11.70;99.90
11666;DHT22;5889;51.350;6.708;2023-12-28T11:15:41;11.70;99.90
11666;DHT22;5889;51.350;6.708;2023-12-28T11:18:09;11.70;99.90
11666;DHT22;5889;51.350;6.708;2023-12-28T11:20:36;11.70;99.90
11666;DHT22;5889;51.350;6.708;2023-12-28T11:23:04;11.70;99.90
11666;DHT22;5889;51.350;6.708;2023-12-28T11:25:33;11.80;99.90
11666;DHT22;5889;51.350;6.708;2023-12-28T11:28:08;11.80;99.90
11666;DHT22;5889;51.350;6.708;2023-12-28T11:30:36;11.80;99.90
11666;DHT22;5889;51.350;6.708;2023-12-28T11:33:05;11.90;99.90
11666;DHT22;5889;51.350;6.708;2023-12-28T11:35:35;11.90;99.90
11666;DHT22;5889;51.350;6.708;2023-12-28T11:38:06;11.80;99.90
11666;DHT22;5889;51.350;6.708;2023-12-28T11:40:40;11.90;99.90
11666;DHT22;5889;51.350;6.708;2023-12-28T11:43:18;11.90;99.90
11666;DHT22;5889;51.350;6.708;2023-12-28T11:45:49;11.90;99.90
11666;DHT22;5889;51.350;6.708;2023-12-28T11:48:23;11.90;99.90
11666;DHT22;5889;51.350;6.708;2023-12-28T11:50:54;11.90;99.90
11666;DHT22;5889;51.350;6.708;2023-12-28T11:53:22;12.00;99.90
11666;DHT22;5889;51.350;6.708;2023-12-28T11:55:49;12.00;99.90
11666;DHT22;5889;51.350;6.708;2023-12-28T11:58:18;12.00;99.90
11666;DHT22;5889;51.350;6.708;2023-12-28T12:00:45;12.00;99.90
11666;DHT22;5889;51.350;6.708;2023-12-28T12:03:12;12.00;99.90
11666;DHT22;5889;51.350;6.708;2023-12-28T12:05:40;12.00;99.90
11666;DHT22;5889;51.350;6.708;2023-12-28T12:08:08;12.00;99.90
11666;DHT22;5889;51.350;6.708;2023-12-28T12:10:36;12.00;99.90
11666;DHT22;5889;51.350;6.708;2023-12-28T12:13:03;12.00;99.90
11666;DHT22;5889;51.350;6.708;2023-12-28T12:15:31;12.00;99.90
11666;DHT22;5889;51.350;6.708;2023-12-28T12:17:58;12.00;99.90
11666;DHT22;5889;51.350;6.708;2023-12-28T12:20:26;12.00;99.90
11666;DHT22;5889;51.350;6.708;2023-12-28T12:22:57;12.00;99.90
11666;DHT22;5889;51.350;6.708;2023-12-28T12:25:24;12.10;99.90
11666;DHT22;5889;51.350;6.708;2023-12-28T12:27:52;12.00;99.90
11666;DHT22;5889;51.350;6.708;2023-12-28T12:30:19;12.00;99.90
11666;DHT22;5889;51.350;6.708;2023-12-28T12:32:48;12.10;99.90
11666;DHT22;5889;51.350;6.708;2023-12-28T12:35:16;12.10;99.90
11666;DHT22;5889;51.350;6.708;2023-12-28T12:37:45;12.10;99.90
11666;DHT22;5889;51.350;6.708;2023-12-28T12:40:12;12.10;99.90
11666;DHT22;5889;51.350;6.708;2023-12-28T12:42:41;12.10;99.90
11666;DHT22;5889;51.350;6.708;2023-12-28T12:45:09;12.20;99.90
11666;DHT22;5889;51.350;6.708;2023-12-28T12:47:36;12.20;99.90
11666;DHT22;5889;51.350;6.708;2023-12-28T12:50:05;12.20;99.90
11666;DHT22;5889;51.350;6.708;2023-12-28T12:52:32;12.20;99.90
11666;DHT22;5889;51.350;6.708;2023-12-28T12:54:59;12.20;99.90
11666;DHT22;5889;51.350;6.708;2023-12-28T12:57:26;12.30;99.90
11666;DHT22;5889;51.350;6.708;2023-12-28T12:59:53;12.30;99.90
11666;DHT22;5889;51.350;6.708;2023-12-28T13:02:22;12.20;99.90
11666;DHT22;5889;51.350;6.708;2023-12-28T13:04:51;12.20;99.90
11666;DHT22;5889;51.350;6.708;2023-12-28T13:07:20;12.20;99.90
11666;DHT22;5889;51.350;6.708;2023-12-28T13:09:47;12.20;99.90
11666;DHT22;5889;51.350;6.708;2023-12-28T13:12:14;12.20;99.90
11666;DHT22;5889;51.350;6.708;2023-12-28T13:14:41;12.20;99.90
11666;DHT22;5889;51.350;6.708;2023-12-28T13:17:10;12.10;99.90
11666;DHT22;5889;51.350;6.708;2023-12-28T13:19:38;12.20;99.90
11666;DHT22;5889;51.350;6.708;2023-12-28T13:22:05;12.20;99.90
11666;DHT22;5889;51.350;6.708;2023-12-28T13:24:33;12.20;99.90
11666;DHT22;5889;51.350;6.708;2023-12-28T13:27:00;12.20;99.90
11666;DHT22;5889;51.350;6.708;2023-12-28T13:29:27;12.20;99.90
11666;DHT22;5889;51.350;6.708;2023-12-28T13:31:55;12.20;99.90
11666;DHT22;5889;51.350;6.708;2023-12-28T13:34:23;12.20;99.90
11666;DHT22;5889;51.350;6.708;2023-12-28T13:36:50;12.20;99.90
11666;DHT22;5889;51.350;6.708;2023-12-28T13:39:19;12.20;99.90
11666;DHT22;5889;51.350;6.708;2023-12-28T13:41:47;12.20;99.90
11666;DHT22;5889;51.350;6.708;2023-12-28T13:44:14;12.20;99.90
11666;DHT22;5889;51.350;6.708;2023-12-28T13:46:43;12.10;99.90
11666;DHT22;5889;51.350;6.708;2023-12-28T13:49:10;12.10;99.90
11666;DHT22;5889;51.350;6.708;2023-12-28T13:51:36;12.10;99.90
11666;DHT22;5889;51.350;6.708;2023-12-28T13:54:03;12.10;99.90
11666;DHT22;5889;51.350;6.708;2023-12-28T13:56:31;12.00;99.90
11666;DHT22;5889;51.350;6.708;2023-12-28T13:58:59;12.00;99.90
11666;DHT22;5889;51.350;6.708;2023-12-28T14:01:26;12.00;99.90
11666;DHT22;5889;51.350;6.708;2023-12-28T14:03:53;12.00;99.90
11666;DHT22;5889;51.350;6.708;2023-12-28T14:06:20;12.00;99.90
11666;DHT22;5889;51.350;6.708;2023-12-28T14:08:47;12.00;99.90
11666;DHT22;5889;51.350;6.708;2023-12-28T14:11:14;12.00;99.90
11666;DHT22;5889;51.350;6.708;2023-12-28T14:13:41;12.00;99.90
11666;DHT22;5889;51.350;6.708;2023-12-28T14:16:09;12.00;99.90
11666;DHT22;5889;51.350;6.708;2023-12-28T14:18:36;12.00;99.90
11666;DHT22;5889;51.350;6.708;2023-12-28T14:21:05;11.90;99.90
11666;DHT22;5889;51.350;6.708;2023-12-28T14:23:33;11.90;99.90
11666;DHT22;5889;51.350;6.708;2023-12-28T14:26:01;11.90;99.90
11666;DHT22;5889;51.350;6.708;2023-12-28T14:28:29;11.90;99.90
11666;DHT22;5889;51.350;6.708;2023-12-28T14:30:58;11.90;99.90
11666;DHT22;5889;51.350;6.708;2023-12-28T14:33:27;11.80;99.90
11666;DHT22;5889;51.350;6.708;2023-12-28T14:35:55;11.80;99.90
11666;DHT22;5889;51.350;6.708;2023-12-28T14:38:22;11.80;99.90
11666;DHT22;5889;51.350;6.708;2023-12-28T14:40:49;11.80;99.90
11666;DHT22;5889;51.350;6.708;2023-12-28T14:43:17;11.80;99.90
11666;DHT22;5889;51.350;6.708;2023-12-28T14:45:44;11.80;99.90
11666;DHT22;5889;51.350;6.708;2023-12-28T14:48:12;11.70;99.90
11666;DHT22;5889;51.350;6.708;2023-12-28T14:50:40;11.70;99.90
11666;DHT22;5889;51.350;6.708;2023-12-28T14:53:07;11.70;99.90
11666;DHT22;5889;51.350;6.708;2023-12-28T14:55:34;11.60;99.90
11666;DHT22;5889;51.350;6.708;2023-12-28T14:58:01;11.60;99.90
11666;DHT22;5889;51.350;6.708;2023-12-28T15:00:28;11.60;99.90
11666;DHT22;5889;51.350;6.708;2023-12-28T15:02:55;11.60;99.90
11666;DHT22;5889;51.350;6.708;2023-12-28T15:05:22;11.50;99.90
11666;DHT22;5889;51.350;6.708;2023-12-28T15:07:50;11.50;99.90
11666;DHT22;5889;51.350;6.708;2023-12-28T15:10:18;11.50;99.90
11666;DHT22;5889;51.350;6.708;2023-12-28T15:12:45;11.50;99.90
11666;DHT22;5889;51.350;6.708;2023-12-28T15:15:13;11.50;99.90
11666;DHT22;5889;51.350;6.708;2023-12-28T15:17:40;11.50;99.90
11666;DHT22;5889;51.350;6.708;2023-12-28T15:20:09;11.40;99.90
11666;DHT22;5889;51.350;6.708;2023-12-28T15:22:37;11.40;99.90
11666;DHT22;5889;51.350;6.708;2023-12-28T15:25:06;11.40;99.90
11666;DHT22;5889;51.350;6.708;2023-12-28T15:27:33;11.30;99.90
11666;DHT22;5889;51.350;6.708;2023-12-28T15:30:00;11.30;99.90
11666;DHT22;5889;51.350;6.708;2023-12-28T15:32:28;11.30;99.90
11666;DHT22;5889;51.350;6.708;2023-12-28T15:34:55;11.20;99.90
11666;DHT22;5889;51.350;6.708;2023-12-28T15:37:22;11.20;99.90
11666;DHT22;5889;51.350;6.708;2023-12-28T15:39:49;11.20;99.90
11666;DHT22;5889;51.350;6.708;2023-12-28T15:42:17;11.20;99.90
11666;DHT22;5889;51.350;6.708;2023-12-28T15:44:44;11.20;99.90
11666;DHT22;5889;51.350;6.708;2023-12-28T15:47:11;11.10;99.90
11666;DHT22;5889;51.350;6.708;2023-12-28T15:49:38;11.10;99.90